SPCBI EDDH-EPWR
Flight info
| Callsign | SPCBI |
|---|---|
| Flight time | 1h 20m |
| Altitude | 29000 |
| Route | AMLUH2G/33 AMLUH L619 BUMIL M748 BOLBO L986 LASIS Z419 VAGNI VAGN1U EPWR/WR704.I29 |
| Aircraft | SF50/L-SBDGRWY/LB2U2 |
Departure
| Time | 2026-05-05 18:53 |
|---|---|
| Airport | Hamburg Helmut Schmidt Airport (EDDH) |
Arrival
| Time | 2026-05-05 20:13 |
|---|---|
| Airport | Copernicus Wrocław Airport (EPWR) |
| Time | Latitude | Longitude | Altitude | Speed | Heading |
|---|---|---|---|---|---|
| 2026-05-05 18:38 | 53.62697 | 9.98729 | 41 ft | 0 kts | 62° |
| 2026-05-05 18:49 | 53.62692 | 9.98697 | 41 ft | 12 kts | 239° |
| 2026-05-05 18:49 | 53.62743 | 9.98666 | 41 ft | 11 kts | 46° |
| 2026-05-05 18:49 | 53.62797 | 9.98774 | 41 ft | 14 kts | 52° |
| 2026-05-05 18:49 | 53.62862 | 9.98911 | 41 ft | 16 kts | 48° |
| 2026-05-05 18:50 | 53.62943 | 9.99067 | 41 ft | 19 kts | 51° |
| 2026-05-05 18:50 | 53.63031 | 9.99240 | 41 ft | 19 kts | 44° |
| 2026-05-05 18:50 | 53.63141 | 9.99317 | 41 ft | 15 kts | 14° |
| 2026-05-05 18:50 | 53.63150 | 9.99321 | 41 ft | 0 kts | 14° |
| 2026-05-05 18:51 | 53.63163 | 9.99327 | 41 ft | 13 kts | 14° |
| 2026-05-05 18:52 | 53.63307 | 9.99363 | 40 ft | 23 kts | 339° |
| 2026-05-05 18:52 | 53.63498 | 9.99205 | 41 ft | 55 kts | 334° |
| 2026-05-05 18:52 | 53.63984 | 9.98781 | 105 ft | 93 kts | 332° |
| 2026-05-05 18:52 | 53.64591 | 9.98237 | 377 ft | 111 kts | 335° |
| 2026-05-05 18:53 | 53.65358 | 9.97552 | 764 ft | 137 kts | 336° |
| 2026-05-05 18:53 | 53.66274 | 9.96760 | 1270 ft | 159 kts | 337° |
| 2026-05-05 18:53 | 53.67274 | 9.95888 | 2016 ft | 162 kts | 337° |
| 2026-05-05 18:53 | 53.68278 | 9.95024 | 2806 ft | 162 kts | 338° |
| 2026-05-05 18:54 | 53.69368 | 9.94591 | 3500 ft | 162 kts | 2° |
| 2026-05-05 18:54 | 53.70510 | 9.94635 | 4168 ft | 167 kts | 3° |
| 2026-05-05 18:54 | 53.71680 | 9.94658 | 4860 ft | 168 kts | 7° |
| 2026-05-05 18:54 | 53.72773 | 9.95585 | 5057 ft | 195 kts | 47° |
| 2026-05-05 18:55 | 53.73331 | 9.97697 | 5497 ft | 193 kts | 75° |
| 2026-05-05 18:55 | 53.73661 | 9.99774 | 6466 ft | 180 kts | 72° |
| 2026-05-05 18:55 | 53.74035 | 10.01837 | 7014 ft | 187 kts | 77° |
| 2026-05-05 18:55 | 53.73976 | 10.04030 | 7644 ft | 188 kts | 104° |
| 2026-05-05 18:56 | 53.73439 | 10.06035 | 8231 ft | 192 kts | 123° |
| 2026-05-05 18:56 | 53.72761 | 10.07992 | 8903 ft | 193 kts | 121° |
| 2026-05-05 18:56 | 53.72103 | 10.09995 | 9564 ft | 196 kts | 122° |
| 2026-05-05 18:56 | 53.71408 | 10.12080 | 9884 ft | 218 kts | 122° |
| 2026-05-05 18:57 | 53.70615 | 10.14451 | 9896 ft | 245 kts | 121° |
| 2026-05-05 18:57 | 53.69742 | 10.17057 | 9897 ft | 263 kts | 122° |
| 2026-05-05 18:57 | 53.68557 | 10.19454 | 9892 ft | 270 kts | 141° |
| 2026-05-05 18:57 | 53.66976 | 10.21179 | 9889 ft | 273 kts | 158° |
| 2026-05-05 18:58 | 53.65160 | 10.22143 | 9889 ft | 275 kts | 168° |
| 2026-05-05 18:58 | 53.63295 | 10.22965 | 9895 ft | 278 kts | 168° |
| 2026-05-05 18:58 | 53.61426 | 10.23829 | 9896 ft | 279 kts | 167° |
| 2026-05-05 18:58 | 53.59545 | 10.24702 | 9895 ft | 282 kts | 167° |
| 2026-05-05 18:59 | 53.57644 | 10.25569 | 9897 ft | 284 kts | 167° |
| 2026-05-05 18:59 | 53.55739 | 10.26439 | 10070 ft | 278 kts | 167° |
| 2026-05-05 18:59 | 53.53960 | 10.27257 | 10808 ft | 252 kts | 167° |
| 2026-05-05 18:59 | 53.52358 | 10.27986 | 11754 ft | 225 kts | 167° |
| 2026-05-05 19:00 | 53.50931 | 10.28638 | 12820 ft | 200 kts | 167° |
| 2026-05-05 19:00 | 53.49630 | 10.29251 | 13486 ft | 199 kts | 162° |
| 2026-05-05 19:00 | 53.48605 | 10.30835 | 13947 ft | 208 kts | 122° |
| 2026-05-05 19:00 | 53.47959 | 10.33023 | 14447 ft | 210 kts | 118° |
| 2026-05-05 19:01 | 53.47249 | 10.35166 | 14939 ft | 211 kts | 124° |
| 2026-05-05 19:01 | 53.46459 | 10.37250 | 15414 ft | 212 kts | 125° |
| 2026-05-05 19:01 | 53.45671 | 10.39351 | 15899 ft | 214 kts | 124° |
| 2026-05-05 19:01 | 53.44883 | 10.41479 | 16372 ft | 215 kts | 124° |
| 2026-05-05 19:02 | 53.44090 | 10.43619 | 16840 ft | 217 kts | 124° |
| 2026-05-05 19:02 | 53.43289 | 10.45773 | 17300 ft | 218 kts | 124° |
| 2026-05-05 19:02 | 53.42483 | 10.47944 | 17760 ft | 220 kts | 124° |
| 2026-05-05 19:02 | 53.41669 | 10.50130 | 18205 ft | 222 kts | 125° |
| 2026-05-05 19:03 | 53.40851 | 10.52332 | 18600 ft | 223 kts | 125° |
| 2026-05-05 19:03 | 53.40027 | 10.54544 | 18991 ft | 224 kts | 125° |
| 2026-05-05 19:03 | 53.39198 | 10.56770 | 19377 ft | 226 kts | 125° |
| 2026-05-05 19:03 | 53.38373 | 10.58983 | 19763 ft | 228 kts | 126° |
| 2026-05-05 19:04 | 53.37531 | 10.61234 | 20134 ft | 229 kts | 126° |
| 2026-05-05 19:04 | 53.36680 | 10.63512 | 20507 ft | 231 kts | 126° |
| 2026-05-05 19:04 | 53.35823 | 10.65801 | 20882 ft | 232 kts | 126° |
| 2026-05-05 19:04 | 53.34967 | 10.68089 | 21308 ft | 232 kts | 127° |
| 2026-05-05 19:05 | 53.34109 | 10.70371 | 21716 ft | 232 kts | 127° |
| 2026-05-05 19:05 | 53.33254 | 10.72652 | 22129 ft | 231 kts | 127° |
| 2026-05-05 19:05 | 53.32397 | 10.74926 | 22539 ft | 231 kts | 127° |
| 2026-05-05 19:05 | 53.31491 | 10.77144 | 22958 ft | 230 kts | 131° |
| 2026-05-05 19:06 | 53.30556 | 10.79301 | 23391 ft | 230 kts | 131° |
| 2026-05-05 19:06 | 53.29636 | 10.81487 | 23754 ft | 230 kts | 131° |
| 2026-05-05 19:06 | 53.28721 | 10.83676 | 24093 ft | 229 kts | 131° |
| 2026-05-05 19:06 | 53.27804 | 10.85857 | 24451 ft | 229 kts | 131° |
| 2026-05-05 19:07 | 53.26890 | 10.88036 | 24823 ft | 229 kts | 131° |
| 2026-05-05 19:07 | 53.25977 | 10.90203 | 25205 ft | 228 kts | 132° |
| 2026-05-05 19:07 | 53.25062 | 10.92370 | 25572 ft | 228 kts | 132° |
| 2026-05-05 19:07 | 53.24151 | 10.94531 | 25946 ft | 227 kts | 132° |
| 2026-05-05 19:08 | 53.23242 | 10.96685 | 26327 ft | 226 kts | 133° |
| 2026-05-05 19:08 | 53.22338 | 10.98824 | 26715 ft | 224 kts | 133° |
| 2026-05-05 19:08 | 53.21436 | 11.00952 | 27086 ft | 224 kts | 133° |
| 2026-05-05 19:08 | 53.20539 | 11.03073 | 27455 ft | 224 kts | 134° |
| 2026-05-05 19:09 | 53.19655 | 11.05161 | 27818 ft | 223 kts | 134° |
| 2026-05-05 19:09 | 53.18760 | 11.07278 | 28182 ft | 223 kts | 134° |
| 2026-05-05 19:09 | 53.17866 | 11.09384 | 28539 ft | 222 kts | 134° |
| 2026-05-05 19:09 | 53.16976 | 11.11485 | 28886 ft | 222 kts | 134° |
| 2026-05-05 19:10 | 53.16054 | 11.13640 | 28925 ft | 235 kts | 134° |
| 2026-05-05 19:10 | 53.15084 | 11.15919 | 28931 ft | 246 kts | 133° |
| 2026-05-05 19:10 | 53.14082 | 11.18306 | 28929 ft | 256 kts | 133° |
| 2026-05-05 19:10 | 53.13042 | 11.20772 | 28933 ft | 263 kts | 133° |
| 2026-05-05 19:11 | 53.11964 | 11.23293 | 28928 ft | 270 kts | 133° |
| 2026-05-05 19:11 | 53.10859 | 11.25876 | 28932 ft | 278 kts | 133° |
| 2026-05-05 19:11 | 53.09725 | 11.28536 | 28920 ft | 285 kts | 133° |
| 2026-05-05 19:11 | 53.08563 | 11.31254 | 28927 ft | 291 kts | 133° |
| 2026-05-05 19:12 | 53.07391 | 11.33989 | 28928 ft | 296 kts | 132° |
| 2026-05-05 19:12 | 53.06187 | 11.36802 | 28929 ft | 300 kts | 132° |
| 2026-05-05 19:12 | 53.03733 | 11.42515 | 28930 ft | 307 kts | 132° |
| 2026-05-05 19:13 | 53.01232 | 11.48335 | 28931 ft | 311 kts | 132° |
| 2026-05-05 19:13 | 52.98696 | 11.54216 | 28930 ft | 315 kts | 132° |
| 2026-05-05 19:14 | 52.96152 | 11.60105 | 28922 ft | 312 kts | 132° |
| 2026-05-05 19:14 | 52.93625 | 11.65929 | 28920 ft | 310 kts | 132° |
| 2026-05-05 19:15 | 52.91097 | 11.71746 | 28911 ft | 312 kts | 133° |
| 2026-05-05 19:15 | 52.88565 | 11.77563 | 28912 ft | 314 kts | 133° |
| 2026-05-05 19:16 | 52.85999 | 11.83446 | 28909 ft | 315 kts | 133° |
| 2026-05-05 19:16 | 52.83444 | 11.89294 | 28902 ft | 312 kts | 133° |
| 2026-05-05 19:17 | 52.80920 | 11.95049 | 28903 ft | 310 kts | 133° |
| 2026-05-05 19:17 | 52.78382 | 12.00824 | 28902 ft | 311 kts | 133° |
| 2026-05-05 19:18 | 52.75827 | 12.06630 | 28902 ft | 313 kts | 133° |
| 2026-05-05 19:18 | 52.74525 | 12.09576 | 29007 ft | 310 kts | 133° |
| 2026-05-05 19:18 | 52.73329 | 12.12313 | 29860 ft | 284 kts | 134° |
| 2026-05-05 19:19 | 52.72226 | 12.14825 | 30643 ft | 256 kts | 135° |
| 2026-05-05 19:19 | 52.71177 | 12.17166 | 30859 ft | 255 kts | 136° |
| 2026-05-05 19:19 | 52.70101 | 12.19547 | 30866 ft | 262 kts | 135° |
| 2026-05-05 19:19 | 52.69013 | 12.22010 | 30876 ft | 268 kts | 135° |
| 2026-05-05 19:20 | 52.67904 | 12.24521 | 30879 ft | 274 kts | 135° |
| 2026-05-05 19:20 | 52.66763 | 12.27090 | 30876 ft | 281 kts | 135° |
| 2026-05-05 19:20 | 52.65595 | 12.29722 | 30879 ft | 287 kts | 134° |
| 2026-05-05 19:20 | 52.64404 | 12.32400 | 30869 ft | 292 kts | 134° |
| 2026-05-05 19:21 | 52.63194 | 12.35120 | 30867 ft | 296 kts | 134° |
| 2026-05-05 19:21 | 52.61970 | 12.37868 | 30867 ft | 299 kts | 134° |
| 2026-05-05 19:21 | 52.59478 | 12.43449 | 30858 ft | 304 kts | 134° |
| 2026-05-05 19:22 | 52.56977 | 12.49034 | 30852 ft | 306 kts | 134° |
| 2026-05-05 19:22 | 52.54429 | 12.54712 | 30854 ft | 309 kts | 134° |
| 2026-05-05 19:23 | 52.51866 | 12.60410 | 30841 ft | 312 kts | 134° |
| 2026-05-05 19:23 | 52.49280 | 12.66135 | 30834 ft | 311 kts | 134° |
| 2026-05-05 19:24 | 52.46710 | 12.71820 | 30839 ft | 308 kts | 134° |
| 2026-05-05 19:24 | 52.44163 | 12.77458 | 30835 ft | 308 kts | 134° |
| 2026-05-05 19:25 | 52.41612 | 12.83075 | 30831 ft | 310 kts | 134° |
| 2026-05-05 19:25 | 52.39028 | 12.88767 | 30833 ft | 312 kts | 134° |
| 2026-05-05 19:26 | 52.36435 | 12.94457 | 30834 ft | 310 kts | 134° |
| 2026-05-05 19:26 | 52.33861 | 13.00087 | 30818 ft | 308 kts | 134° |
| 2026-05-05 19:27 | 52.31275 | 13.05735 | 30822 ft | 312 kts | 134° |
| 2026-05-05 19:27 | 52.28660 | 13.11435 | 30824 ft | 313 kts | 134° |
| 2026-05-05 19:28 | 52.26068 | 13.17079 | 30822 ft | 306 kts | 134° |
| 2026-05-05 19:28 | 52.23520 | 13.22599 | 30821 ft | 305 kts | 134° |
| 2026-05-05 19:29 | 52.20973 | 13.28124 | 30819 ft | 308 kts | 134° |
| 2026-05-05 19:29 | 52.18393 | 13.33704 | 30821 ft | 307 kts | 134° |
| 2026-05-05 19:30 | 52.15826 | 13.39236 | 30819 ft | 305 kts | 134° |
| 2026-05-05 19:30 | 52.13259 | 13.44750 | 30820 ft | 307 kts | 134° |
| 2026-05-05 19:31 | 52.11102 | 13.49390 | 30824 ft | 310 kts | 134° |
| 2026-05-05 19:31 | 52.08483 | 13.54999 | 30824 ft | 311 kts | 134° |
| 2026-05-05 19:32 | 52.05881 | 13.60562 | 30815 ft | 308 kts | 134° |
| 2026-05-05 19:32 | 52.03296 | 13.66085 | 30811 ft | 306 kts | 134° |
| 2026-05-05 19:33 | 52.00697 | 13.71614 | 30812 ft | 309 kts | 134° |
| 2026-05-05 19:33 | 51.98081 | 13.77176 | 30809 ft | 311 kts | 134° |
| 2026-05-05 19:34 | 51.95453 | 13.82750 | 30807 ft | 309 kts | 134° |
| 2026-05-05 19:35 | 51.91516 | 13.91069 | 30811 ft | 312 kts | 133° |
| 2026-05-05 19:35 | 51.88884 | 13.96617 | 30807 ft | 309 kts | 134° |
| 2026-05-05 19:36 | 51.86273 | 14.02111 | 30810 ft | 307 kts | 134° |
| 2026-05-05 19:36 | 51.83678 | 14.07564 | 30534 ft | 295 kts | 134° |
| 2026-05-05 19:36 | 51.82415 | 14.10205 | 29276 ft | 301 kts | 134° |
| 2026-05-05 19:37 | 51.81154 | 14.12834 | 28841 ft | 284 kts | 134° |
| 2026-05-05 19:37 | 51.79970 | 14.15333 | 28832 ft | 283 kts | 134° |
| 2026-05-05 19:37 | 51.78746 | 14.17892 | 28835 ft | 291 kts | 134° |
| 2026-05-05 19:37 | 51.77497 | 14.20488 | 28846 ft | 295 kts | 134° |
| 2026-05-05 19:38 | 51.76226 | 14.23138 | 28845 ft | 300 kts | 134° |
| 2026-05-05 19:38 | 51.73643 | 14.28524 | 28847 ft | 307 kts | 134° |
| 2026-05-05 19:39 | 51.71002 | 14.34010 | 28849 ft | 312 kts | 134° |
| 2026-05-05 19:39 | 51.68322 | 14.39570 | 28851 ft | 314 kts | 133° |
| 2026-05-05 19:40 | 51.65648 | 14.45102 | 28850 ft | 311 kts | 134° |
| 2026-05-05 19:40 | 51.62992 | 14.50584 | 28848 ft | 310 kts | 134° |
| 2026-05-05 19:41 | 51.60346 | 14.56041 | 28840 ft | 310 kts | 134° |
| 2026-05-05 19:41 | 51.57691 | 14.61499 | 28834 ft | 309 kts | 133° |
| 2026-05-05 19:42 | 51.55025 | 14.66968 | 28830 ft | 308 kts | 133° |
| 2026-05-05 19:42 | 51.52403 | 14.72339 | 28830 ft | 307 kts | 133° |
| 2026-05-05 19:43 | 51.49745 | 14.77765 | 28834 ft | 310 kts | 133° |
| 2026-05-05 19:43 | 51.47072 | 14.83212 | 28836 ft | 311 kts | 133° |
| 2026-05-05 19:44 | 51.44382 | 14.88684 | 28837 ft | 312 kts | 133° |
| 2026-05-05 19:44 | 51.41712 | 14.94135 | 28830 ft | 310 kts | 131° |
| 2026-05-05 19:44 | 51.40661 | 14.97129 | 28826 ft | 315 kts | 118° |
| 2026-05-05 19:45 | 51.40001 | 15.00492 | 28817 ft | 318 kts | 108° |
| 2026-05-05 19:45 | 51.38897 | 15.07420 | 28835 ft | 322 kts | 108° |
| 2026-05-05 19:46 | 51.37771 | 15.14412 | 28836 ft | 324 kts | 108° |
| 2026-05-05 19:46 | 51.36647 | 15.21358 | 28830 ft | 321 kts | 108° |
| 2026-05-05 19:47 | 51.35535 | 15.28213 | 28828 ft | 320 kts | 108° |
| 2026-05-05 19:47 | 51.34406 | 15.35127 | 28832 ft | 322 kts | 108° |
| 2026-05-05 19:48 | 51.33268 | 15.42087 | 28840 ft | 324 kts | 108° |
| 2026-05-05 19:48 | 51.32127 | 15.49046 | 28831 ft | 322 kts | 108° |
| 2026-05-05 19:49 | 51.29897 | 15.62538 | 28830 ft | 320 kts | 108° |
| 2026-05-05 19:50 | 51.27438 | 15.77282 | 28836 ft | 324 kts | 108° |
| 2026-05-05 19:50 | 51.26866 | 15.80700 | 28733 ft | 324 kts | 108° |
| 2026-05-05 19:51 | 51.26294 | 15.84113 | 28351 ft | 320 kts | 108° |
| 2026-05-05 19:51 | 51.25721 | 15.87514 | 27936 ft | 314 kts | 109° |
| 2026-05-05 19:51 | 51.25154 | 15.90866 | 27523 ft | 313 kts | 109° |
| 2026-05-05 19:51 | 51.24587 | 15.94222 | 27112 ft | 314 kts | 108° |
| 2026-05-05 19:52 | 51.24017 | 15.97594 | 26700 ft | 315 kts | 109° |
| 2026-05-05 19:52 | 51.23258 | 16.00869 | 26273 ft | 313 kts | 117° |
| 2026-05-05 19:52 | 51.22409 | 16.04071 | 25863 ft | 314 kts | 116° |
| 2026-05-05 19:52 | 51.21578 | 16.07307 | 25449 ft | 315 kts | 116° |
| 2026-05-05 19:53 | 51.20748 | 16.10547 | 25035 ft | 316 kts | 116° |
| 2026-05-05 19:53 | 51.19906 | 16.13785 | 24617 ft | 316 kts | 117° |
| 2026-05-05 19:53 | 51.19349 | 16.15925 | 24341 ft | 316 kts | 117° |
| 2026-05-05 19:53 | 51.18508 | 16.19162 | 23923 ft | 316 kts | 117° |
| 2026-05-05 19:54 | 51.17667 | 16.22395 | 23508 ft | 316 kts | 117° |
| 2026-05-05 19:54 | 51.16547 | 16.26681 | 22913 ft | 316 kts | 117° |
| 2026-05-05 19:54 | 51.15701 | 16.29909 | 22549 ft | 316 kts | 117° |
| 2026-05-05 19:54 | 51.15124 | 16.32107 | 22242 ft | 321 kts | 117° |
| 2026-05-05 19:55 | 51.14265 | 16.35403 | 21769 ft | 319 kts | 116° |
| 2026-05-05 19:55 | 51.13431 | 16.38600 | 21356 ft | 314 kts | 116° |
| 2026-05-05 19:55 | 51.12577 | 16.41825 | 20943 ft | 318 kts | 116° |
| 2026-05-05 19:55 | 51.11713 | 16.45083 | 20520 ft | 318 kts | 116° |
| 2026-05-05 19:56 | 51.10868 | 16.48313 | 20099 ft | 314 kts | 116° |
| 2026-05-05 19:56 | 51.10054 | 16.51446 | 18955 ft | 299 kts | 115° |
| 2026-05-05 19:56 | 51.09235 | 16.54549 | 16722 ft | 309 kts | 115° |
| 2026-05-05 19:56 | 51.08460 | 16.57759 | 14678 ft | 309 kts | 110° |
| 2026-05-05 19:57 | 51.07783 | 16.60929 | 12974 ft | 296 kts | 110° |
| 2026-05-05 19:57 | 51.07123 | 16.63975 | 11192 ft | 286 kts | 111° |
| 2026-05-05 19:57 | 51.06481 | 16.66888 | 9800 ft | 268 kts | 112° |
| 2026-05-05 19:57 | 51.05881 | 16.69581 | 8224 ft | 251 kts | 114° |
| 2026-05-05 19:58 | 51.05152 | 16.72030 | 6870 ft | 244 kts | 120° |
| 2026-05-05 19:58 | 51.04433 | 16.74350 | 6665 ft | 234 kts | 119° |
| 2026-05-05 19:58 | 51.03690 | 16.76784 | 6668 ft | 248 kts | 119° |
| 2026-05-05 19:58 | 51.02936 | 16.79274 | 6663 ft | 253 kts | 119° |
| 2026-05-05 19:59 | 51.02167 | 16.81792 | 6670 ft | 253 kts | 119° |
| 2026-05-05 19:59 | 51.01397 | 16.84308 | 6669 ft | 253 kts | 119° |
| 2026-05-05 19:59 | 51.00625 | 16.86821 | 6664 ft | 252 kts | 119° |
| 2026-05-05 19:59 | 50.99854 | 16.89329 | 6664 ft | 254 kts | 119° |
| 2026-05-05 20:00 | 50.99078 | 16.91851 | 6661 ft | 254 kts | 119° |
| 2026-05-05 20:00 | 50.98306 | 16.94366 | 6663 ft | 254 kts | 119° |
| 2026-05-05 20:00 | 50.97528 | 16.96895 | 6663 ft | 255 kts | 119° |
| 2026-05-05 20:00 | 50.96748 | 16.99435 | 6668 ft | 255 kts | 119° |
| 2026-05-05 20:01 | 50.95975 | 17.01945 | 6667 ft | 252 kts | 119° |
| 2026-05-05 20:01 | 50.95206 | 17.04426 | 6667 ft | 242 kts | 119° |
| 2026-05-05 20:01 | 50.94451 | 17.06839 | 6660 ft | 252 kts | 120° |
| 2026-05-05 20:01 | 50.93679 | 17.09326 | 6663 ft | 251 kts | 119° |
| 2026-05-05 20:02 | 50.92911 | 17.11821 | 6661 ft | 253 kts | 119° |
| 2026-05-05 20:02 | 50.92128 | 17.14339 | 6662 ft | 255 kts | 119° |
| 2026-05-05 20:02 | 50.91351 | 17.16861 | 6664 ft | 255 kts | 119° |
| 2026-05-05 20:02 | 50.90585 | 17.19352 | 6654 ft | 255 kts | 119° |
| 2026-05-05 20:03 | 50.89802 | 17.21887 | 6652 ft | 257 kts | 119° |
| 2026-05-05 20:03 | 50.89010 | 17.24424 | 6650 ft | 256 kts | 119° |
| 2026-05-05 20:03 | 50.88219 | 17.26961 | 6649 ft | 257 kts | 119° |
| 2026-05-05 20:03 | 50.87452 | 17.29426 | 6648 ft | 240 kts | 119° |
| 2026-05-05 20:04 | 50.86836 | 17.31836 | 6637 ft | 239 kts | 105° |
| 2026-05-05 20:04 | 50.86799 | 17.34482 | 6641 ft | 243 kts | 84° |
| 2026-05-05 20:04 | 50.87367 | 17.37001 | 6638 ft | 245 kts | 62° |
| 2026-05-05 20:04 | 50.88482 | 17.39038 | 6639 ft | 247 kts | 39° |
| 2026-05-05 20:05 | 50.89999 | 17.40295 | 6639 ft | 247 kts | 17° |
| 2026-05-05 20:05 | 50.91693 | 17.40582 | 6637 ft | 245 kts | 354° |
| 2026-05-05 20:05 | 50.93322 | 17.39877 | 6637 ft | 242 kts | 332° |
| 2026-05-05 20:05 | 50.94661 | 17.38318 | 6609 ft | 239 kts | 310° |
| 2026-05-05 20:06 | 50.95565 | 17.36141 | 6393 ft | 235 kts | 292° |
| 2026-05-05 20:06 | 50.96272 | 17.33815 | 6103 ft | 232 kts | 292° |
| 2026-05-05 20:06 | 50.96989 | 17.31534 | 5791 ft | 230 kts | 293° |
| 2026-05-05 20:06 | 50.97700 | 17.29261 | 5487 ft | 229 kts | 292° |
| 2026-05-05 20:07 | 50.98182 | 17.26918 | 5166 ft | 223 kts | 276° |
| 2026-05-05 20:07 | 50.98578 | 17.24499 | 4895 ft | 228 kts | 285° |
| 2026-05-05 20:07 | 50.99082 | 17.22138 | 4613 ft | 229 kts | 287° |
| 2026-05-05 20:07 | 50.99615 | 17.19768 | 4470 ft | 231 kts | 295° |
| 2026-05-05 20:08 | 51.00679 | 17.17783 | 4217 ft | 236 kts | 314° |
| 2026-05-05 20:08 | 51.01789 | 17.15905 | 3924 ft | 230 kts | 308° |
| 2026-05-05 20:08 | 51.02624 | 17.13734 | 3628 ft | 232 kts | 295° |
| 2026-05-05 20:08 | 51.03254 | 17.11418 | 3342 ft | 231 kts | 294° |
| 2026-05-05 20:09 | 51.03911 | 17.09160 | 3049 ft | 216 kts | 298° |
| 2026-05-05 20:09 | 51.04560 | 17.07140 | 2778 ft | 194 kts | 299° |
| 2026-05-05 20:09 | 51.05142 | 17.05306 | 2532 ft | 178 kts | 299° |
| 2026-05-05 20:09 | 51.05663 | 17.03585 | 2309 ft | 167 kts | 300° |
| 2026-05-05 20:10 | 51.06159 | 17.01967 | 2086 ft | 158 kts | 301° |
| 2026-05-05 20:10 | 51.06638 | 17.00430 | 1880 ft | 151 kts | 303° |
| 2026-05-05 20:10 | 51.07070 | 16.98935 | 1691 ft | 147 kts | 301° |
| 2026-05-05 20:10 | 51.07525 | 16.97498 | 1490 ft | 145 kts | 307° |
| 2026-05-05 20:11 | 51.07998 | 16.96077 | 1291 ft | 143 kts | 304° |
| 2026-05-05 20:11 | 51.08424 | 16.94669 | 1105 ft | 141 kts | 299° |
| 2026-05-05 20:11 | 51.08818 | 16.93289 | 916 ft | 134 kts | 298° |
| 2026-05-05 20:11 | 51.09234 | 16.91984 | 747 ft | 131 kts | 298° |
| 2026-05-05 20:12 | 51.09581 | 16.90798 | 591 ft | 101 kts | 299° |
| 2026-05-05 20:12 | 51.09868 | 16.89874 | 466 ft | 92 kts | 297° |
| 2026-05-05 20:12 | 51.10146 | 16.88973 | 409 ft | 79 kts | 296° |
| 2026-05-05 20:12 | 51.10351 | 16.88300 | 399 ft | 58 kts | 294° |
| 2026-05-05 20:13 | 51.10506 | 16.87773 | 396 ft | 50 kts | 298° |
| 2026-05-05 20:13 | 51.10651 | 16.87348 | 396 ft | 23 kts | 298° |
| 2026-05-05 20:13 | 51.10767 | 16.87266 | 397 ft | 23 kts | 30° |
| 2026-05-05 20:13 | 51.10794 | 16.87290 | 397 ft | 0 kts | 30° |
| 2026-05-05 20:14 | 51.10787 | 16.87294 | 397 ft | 8 kts | 216° |
| 2026-05-05 20:15 | 51.10674 | 16.87214 | 397 ft | 23 kts | 197° |
| 2026-05-05 20:15 | 51.10501 | 16.87092 | 397 ft | 27 kts | 208° |
| 2026-05-05 20:15 | 51.10408 | 16.87196 | 397 ft | 22 kts | 113° |
| 2026-05-05 20:15 | 51.10335 | 16.87445 | 397 ft | 28 kts | 116° |
| 2026-05-05 20:16 | 51.10236 | 16.87744 | 397 ft | 33 kts | 119° |
| 2026-05-05 20:16 | 51.10134 | 16.88001 | 397 ft | 27 kts | 131° |
| 2026-05-05 20:16 | 51.10024 | 16.88090 | 397 ft | 8 kts | 128° |
| 2026-05-05 20:16 | 51.10025 | 16.88127 | 397 ft | 0 kts | 38° |
| 2026-05-05 20:25 | 51.10026 | 16.88128 | 397 ft | 2 kts | 37° |
| 2026-05-05 20:25 | 51.10025 | 16.88210 | 397 ft | 16 kts | 127° |
| 2026-05-05 20:25 | 51.09928 | 16.88406 | 397 ft | 26 kts | 128° |
| 2026-05-05 20:25 | 51.09801 | 16.88637 | 397 ft | 29 kts | 129° |
| 2026-05-05 20:26 | 51.09738 | 16.88874 | 397 ft | 20 kts | 101° |
| 2026-05-05 20:26 | 51.09688 | 16.89084 | 397 ft | 22 kts | 100° |
| 2026-05-05 20:26 | 51.09660 | 16.89343 | 397 ft | 26 kts | 100° |
| 2026-05-05 20:26 | 51.09657 | 16.89617 | 397 ft | 22 kts | 31° |
| 2026-05-05 20:27 | 51.09775 | 16.89701 | 397 ft | 16 kts | 25° |
| 2026-05-05 20:27 | 51.09871 | 16.89768 | 397 ft | 14 kts | 19° |
| 2026-05-05 20:27 | 51.09915 | 16.89731 | 397 ft | 0 kts | 295° |
| 2026-05-05 20:28 | 51.10013 | 16.89411 | 400 ft | 67 kts | 297° |
| 2026-05-05 20:28 | 51.10256 | 16.88685 | 616 ft | 73 kts | 318° |
| 2026-05-05 20:28 | 51.10622 | 16.88902 | 712 ft | 82 kts | 80° |
| 2026-05-05 20:28 | 51.10732 | 16.89854 | 982 ft | 97 kts | 46° |
| 2026-05-05 20:29 | 51.11453 | 16.90109 | 1482 ft | 122 kts | 5° |
| 2026-05-05 20:29 | 51.12341 | 16.90383 | 2026 ft | 139 kts | 30° |
| 2026-05-05 20:29 | 51.13210 | 16.91384 | 2160 ft | 172 kts | 49° |
| 2026-05-05 20:29 | 51.13991 | 16.92942 | 2143 ft | 190 kts | 52° |
| 2026-05-05 20:30 | 51.14850 | 16.94575 | 2138 ft | 193 kts | 50° |
| 2026-05-05 20:30 | 51.15651 | 16.96276 | 2134 ft | 196 kts | 61° |
| 2026-05-05 20:30 | 51.16207 | 16.98407 | 2142 ft | 217 kts | 68° |
| 2026-05-05 20:30 | 51.16793 | 17.00652 | 2142 ft | 220 kts | 66° |
| 2026-05-05 20:31 | 51.17393 | 17.02913 | 2142 ft | 223 kts | 67° |
| 2026-05-05 20:31 | 51.17975 | 17.05149 | 2140 ft | 220 kts | 68° |
| 2026-05-05 20:31 | 51.18567 | 17.07442 | 2144 ft | 228 kts | 68° |
| 2026-05-05 20:31 | 51.19162 | 17.09731 | 2139 ft | 218 kts | 68° |
| 2026-05-05 20:32 | 51.19744 | 17.11982 | 2141 ft | 224 kts | 68° |
| 2026-05-05 20:32 | 51.20345 | 17.14287 | 2145 ft | 222 kts | 68° |
| 2026-05-05 20:32 | 51.20931 | 17.16557 | 2144 ft | 222 kts | 68° |
| 2026-05-05 20:32 | 51.21521 | 17.18841 | 2142 ft | 224 kts | 68° |
| 2026-05-05 20:33 | 51.22117 | 17.21147 | 2143 ft | 224 kts | 68° |
| 2026-05-05 20:33 | 51.22707 | 17.23435 | 2144 ft | 221 kts | 68° |
| 2026-05-05 20:33 | 51.23290 | 17.25701 | 2140 ft | 223 kts | 67° |
| 2026-05-05 20:33 | 51.23885 | 17.28007 | 2141 ft | 224 kts | 68° |
| 2026-05-05 20:34 | 51.24469 | 17.30280 | 2139 ft | 219 kts | 67° |
| 2026-05-05 20:34 | 51.25050 | 17.32542 | 2139 ft | 221 kts | 67° |
| 2026-05-05 20:34 | 51.25630 | 17.34796 | 2138 ft | 222 kts | 67° |
| 2026-05-05 20:34 | 51.26215 | 17.37074 | 2138 ft | 221 kts | 68° |
| 2026-05-05 20:35 | 51.26795 | 17.39344 | 2141 ft | 221 kts | 67° |
| 2026-05-05 20:35 | 51.27381 | 17.41633 | 2141 ft | 224 kts | 69° |
| 2026-05-05 20:35 | 51.27974 | 17.43959 | 2137 ft | 228 kts | 69° |
| 2026-05-05 20:35 | 51.28578 | 17.46305 | 2371 ft | 224 kts | 69° |
| 2026-05-05 20:36 | 51.29130 | 17.48495 | 3399 ft | 199 kts | 71° |
| 2026-05-05 20:36 | 51.29623 | 17.50427 | 4518 ft | 179 kts | 71° |
| 2026-05-05 20:36 | 51.30096 | 17.52299 | 5219 ft | 185 kts | 71° |
| 2026-05-05 20:36 | 51.30576 | 17.54200 | 5928 ft | 188 kts | 70° |
| 2026-05-05 20:37 | 51.31076 | 17.56158 | 6619 ft | 191 kts | 70° |
| 2026-05-05 20:37 | 51.31409 | 17.57467 | 7083 ft | 192 kts | 70° |
| 2026-05-05 20:37 | 51.32086 | 17.60133 | 7997 ft | 195 kts | 70° |
| 2026-05-05 20:37 | 51.32597 | 17.62144 | 8708 ft | 196 kts | 70° |
| 2026-05-05 20:38 | 51.33113 | 17.64176 | 9405 ft | 199 kts | 70° |
| 2026-05-05 20:38 | 51.33633 | 17.66235 | 10078 ft | 201 kts | 70° |
| 2026-05-05 20:38 | 51.34159 | 17.68316 | 10733 ft | 202 kts | 70° |
| 2026-05-05 20:38 | 51.34688 | 17.70413 | 11406 ft | 203 kts | 70° |
| 2026-05-05 20:39 | 51.35215 | 17.72502 | 12051 ft | 206 kts | 71° |
| 2026-05-05 20:39 | 51.35753 | 17.74638 | 12698 ft | 208 kts | 71° |
| 2026-05-05 20:39 | 51.36299 | 17.76798 | 13356 ft | 210 kts | 71° |
| 2026-05-05 20:39 | 51.36841 | 17.78938 | 13292 ft | 205 kts | 71° |
| 2026-05-05 20:40 | 51.37203 | 17.80377 | 12542 ft | 217 kts | 71° |
| 2026-05-05 20:40 | 51.37791 | 17.82734 | 11389 ft | 235 kts | 70° |
| 2026-05-05 20:40 | 51.38396 | 17.85139 | 11262 ft | 240 kts | 70° |
| 2026-05-05 20:40 | 51.39055 | 17.87767 | 11272 ft | 264 kts | 70° |
| 2026-05-05 20:41 | 51.39759 | 17.90567 | 11278 ft | 275 kts | 70° |
| 2026-05-05 20:41 | 51.40479 | 17.93436 | 11278 ft | 280 kts | 70° |
| 2026-05-05 20:41 | 51.41207 | 17.96355 | 11277 ft | 285 kts | 70° |
| 2026-05-05 20:41 | 51.41944 | 17.99315 | 11278 ft | 287 kts | 70° |
| 2026-05-05 20:42 | 51.42687 | 18.02298 | 11264 ft | 290 kts | 70° |
| 2026-05-05 20:42 | 51.43435 | 18.05303 | 11270 ft | 291 kts | 70° |
| 2026-05-05 20:42 | 51.44189 | 18.08338 | 11268 ft | 292 kts | 70° |
| 2026-05-05 20:42 | 51.44944 | 18.11372 | 11271 ft | 293 kts | 70° |
| 2026-05-05 20:43 | 51.45696 | 18.14412 | 11266 ft | 294 kts | 70° |
| 2026-05-05 20:43 | 51.46439 | 18.17414 | 11270 ft | 294 kts | 70° |
| 2026-05-05 20:43 | 51.47195 | 18.20472 | 11274 ft | 295 kts | 70° |
| 2026-05-05 20:43 | 51.47948 | 18.23529 | 11270 ft | 295 kts | 70° |
| 2026-05-05 20:44 | 51.48701 | 18.26588 | 11273 ft | 295 kts | 70° |
| 2026-05-05 20:44 | 51.49456 | 18.29654 | 11269 ft | 295 kts | 70° |
| 2026-05-05 20:44 | 51.50210 | 18.32722 | 11264 ft | 295 kts | 70° |
| 2026-05-05 20:44 | 51.50962 | 18.35792 | 11272 ft | 295 kts | 70° |
| 2026-05-05 20:45 | 51.52470 | 18.41940 | 11273 ft | 295 kts | 70° |
| 2026-05-05 20:45 | 51.53220 | 18.45014 | 11270 ft | 296 kts | 70° |
| 2026-05-05 20:45 | 51.53972 | 18.48091 | 11270 ft | 296 kts | 70° |
| 2026-05-05 20:46 | 51.54723 | 18.51176 | 11268 ft | 297 kts | 70° |
| 2026-05-05 20:46 | 51.55476 | 18.54278 | 11270 ft | 298 kts | 70° |
| 2026-05-05 20:46 | 51.56232 | 18.57385 | 11275 ft | 299 kts | 70° |
| 2026-05-05 20:46 | 51.56986 | 18.60494 | 11274 ft | 299 kts | 70° |
| 2026-05-05 20:47 | 51.57731 | 18.63572 | 11266 ft | 299 kts | 71° |
| 2026-05-05 20:47 | 51.58495 | 18.66730 | 11259 ft | 299 kts | 71° |
| 2026-05-05 20:47 | 51.59241 | 18.69808 | 11262 ft | 299 kts | 71° |
| 2026-05-05 20:47 | 51.59994 | 18.72930 | 11261 ft | 299 kts | 71° |
| 2026-05-05 20:48 | 51.60747 | 18.76060 | 11261 ft | 300 kts | 71° |
| 2026-05-05 20:48 | 51.61500 | 18.79185 | 11266 ft | 300 kts | 71° |
| 2026-05-05 20:48 | 51.62248 | 18.82307 | 11266 ft | 300 kts | 71° |
| 2026-05-05 20:48 | 51.63003 | 18.85455 | 11266 ft | 300 kts | 71° |
| 2026-05-05 20:49 | 51.63751 | 18.88578 | 11267 ft | 300 kts | 71° |
| 2026-05-05 20:49 | 51.64499 | 18.91711 | 11267 ft | 300 kts | 71° |
| 2026-05-05 20:49 | 51.65249 | 18.94845 | 11271 ft | 300 kts | 71° |
| 2026-05-05 20:49 | 51.65998 | 18.97980 | 11270 ft | 300 kts | 71° |
| 2026-05-05 20:50 | 51.66743 | 19.01112 | 11274 ft | 299 kts | 71° |
| 2026-05-05 20:50 | 51.67487 | 19.04240 | 11272 ft | 300 kts | 71° |
| 2026-05-05 20:50 | 51.68234 | 19.07378 | 11272 ft | 299 kts | 71° |
| 2026-05-05 20:50 | 51.68977 | 19.10524 | 11278 ft | 300 kts | 71° |
| 2026-05-05 20:51 | 51.69721 | 19.13664 | 11276 ft | 301 kts | 70° |
| 2026-05-05 20:51 | 51.70465 | 19.16811 | 11276 ft | 301 kts | 71° |
| 2026-05-05 20:51 | 51.71202 | 19.19939 | 11275 ft | 301 kts | 71° |
| 2026-05-05 20:51 | 51.71947 | 19.23095 | 11277 ft | 302 kts | 71° |
| 2026-05-05 20:52 | 51.72693 | 19.26263 | 11278 ft | 302 kts | 71° |
| 2026-05-05 20:52 | 51.73439 | 19.29431 | 11283 ft | 302 kts | 71° |
| 2026-05-05 20:52 | 51.74182 | 19.32599 | 11282 ft | 302 kts | 71° |
| 2026-05-05 20:52 | 51.74925 | 19.35771 | 11280 ft | 302 kts | 71° |
| 2026-05-05 20:53 | 51.75669 | 19.38946 | 11281 ft | 302 kts | 71° |
| 2026-05-05 20:53 | 51.76410 | 19.42125 | 11276 ft | 302 kts | 71° |
| 2026-05-05 20:53 | 51.77143 | 19.45264 | 11278 ft | 302 kts | 71° |
| 2026-05-05 20:53 | 51.77882 | 19.48438 | 11276 ft | 302 kts | 71° |
| 2026-05-05 20:54 | 51.78620 | 19.51617 | 11279 ft | 302 kts | 71° |
| 2026-05-05 20:54 | 51.79361 | 19.54799 | 11279 ft | 302 kts | 71° |
| 2026-05-05 20:54 | 51.80100 | 19.57984 | 11280 ft | 302 kts | 71° |
| 2026-05-05 20:54 | 51.80835 | 19.61161 | 11280 ft | 302 kts | 71° |
| 2026-05-05 20:55 | 51.81572 | 19.64344 | 11278 ft | 302 kts | 71° |
| 2026-05-05 20:55 | 51.82312 | 19.67548 | 11277 ft | 302 kts | 71° |
| 2026-05-05 20:55 | 51.83037 | 19.70694 | 11274 ft | 302 kts | 71° |
| 2026-05-05 20:55 | 51.83776 | 19.73877 | 11277 ft | 302 kts | 71° |
| 2026-05-05 20:56 | 51.84510 | 19.77068 | 11279 ft | 302 kts | 71° |
| 2026-05-05 20:56 | 51.85239 | 19.80255 | 11274 ft | 302 kts | 71° |
| 2026-05-05 20:56 | 51.85971 | 19.83448 | 11278 ft | 302 kts | 71° |
| 2026-05-05 20:56 | 51.86702 | 19.86640 | 11275 ft | 301 kts | 72° |
| 2026-05-05 20:57 | 51.87428 | 19.89818 | 11276 ft | 301 kts | 71° |
| 2026-05-05 20:57 | 51.88154 | 19.92995 | 11268 ft | 301 kts | 72° |
| 2026-05-05 20:57 | 51.88878 | 19.96177 | 11272 ft | 300 kts | 72° |
| 2026-05-05 20:57 | 51.89604 | 19.99372 | 11133 ft | 305 kts | 72° |
| 2026-05-05 20:58 | 51.90333 | 20.02577 | 10775 ft | 305 kts | 71° |
| 2026-05-05 20:58 | 51.91048 | 20.05722 | 10384 ft | 288 kts | 71° |
| 2026-05-05 20:58 | 51.91725 | 20.08720 | 10020 ft | 283 kts | 72° |
| 2026-05-05 20:58 | 51.92400 | 20.11720 | 9635 ft | 282 kts | 72° |
| 2026-05-05 20:59 | 51.93074 | 20.14699 | 9243 ft | 281 kts | 71° |
| 2026-05-05 20:59 | 51.93744 | 20.17667 | 8870 ft | 280 kts | 72° |
| 2026-05-05 20:59 | 51.94409 | 20.20626 | 8498 ft | 279 kts | 72° |
| 2026-05-05 20:59 | 51.95075 | 20.23582 | 8132 ft | 278 kts | 72° |
| 2026-05-05 21:00 | 51.95735 | 20.26525 | 7762 ft | 276 kts | 72° |
| 2026-05-05 21:00 | 51.96392 | 20.29453 | 7403 ft | 276 kts | 72° |
| 2026-05-05 21:00 | 51.97049 | 20.32382 | 7046 ft | 276 kts | 72° |
| 2026-05-05 21:00 | 51.97693 | 20.35273 | 6679 ft | 277 kts | 72° |
| 2026-05-05 21:01 | 51.98352 | 20.38220 | 6316 ft | 276 kts | 72° |
| 2026-05-05 21:01 | 51.99004 | 20.41149 | 5939 ft | 274 kts | 72° |
| 2026-05-05 21:01 | 51.99649 | 20.44045 | 5573 ft | 272 kts | 72° |
| 2026-05-05 21:01 | 52.00286 | 20.46913 | 5354 ft | 268 kts | 72° |
| 2026-05-05 21:02 | 52.00926 | 20.49799 | 5061 ft | 274 kts | 72° |
| 2026-05-05 21:02 | 52.01571 | 20.52709 | 4719 ft | 271 kts | 72° |
| 2026-05-05 21:02 | 52.02203 | 20.55554 | 4360 ft | 270 kts | 72° |
| 2026-05-05 21:02 | 52.02834 | 20.58412 | 3999 ft | 268 kts | 72° |
| 2026-05-05 21:03 | 52.03462 | 20.61249 | 3648 ft | 266 kts | 72° |
| 2026-05-05 21:03 | 52.04083 | 20.64072 | 3288 ft | 264 kts | 71° |
| 2026-05-05 21:03 | 52.04699 | 20.66868 | 2932 ft | 261 kts | 71° |
| 2026-05-05 21:03 | 52.05307 | 20.69633 | 2586 ft | 256 kts | 71° |
| 2026-05-05 21:04 | 52.05901 | 20.72333 | 2246 ft | 251 kts | 71° |
| 2026-05-05 21:04 | 52.06637 | 20.74850 | 2005 ft | 243 kts | 55° |
| 2026-05-05 21:04 | 52.07677 | 20.76894 | 2002 ft | 228 kts | 49° |
| 2026-05-05 21:04 | 52.08655 | 20.78792 | 1992 ft | 205 kts | 50° |
| 2026-05-05 21:05 | 52.09501 | 20.80449 | 1992 ft | 182 kts | 50° |
| 2026-05-05 21:05 | 52.10275 | 20.81949 | 1992 ft | 160 kts | 50° |
| 2026-05-05 21:05 | 52.10931 | 20.83239 | 1989 ft | 141 kts | 53° |
| 2026-05-05 21:05 | 52.11472 | 20.84474 | 1990 ft | 127 kts | 53° |
| 2026-05-05 21:06 | 52.11976 | 20.85583 | 1989 ft | 116 kts | 54° |
| 2026-05-05 21:06 | 52.12427 | 20.86596 | 1990 ft | 107 kts | 54° |
| 2026-05-05 21:06 | 52.12864 | 20.87584 | 1996 ft | 108 kts | 55° |
| 2026-05-05 21:06 | 52.13226 | 20.88641 | 1993 ft | 107 kts | 85° |
| 2026-05-05 21:07 | 52.13053 | 20.89775 | 2004 ft | 105 kts | 124° |
| 2026-05-05 21:07 | 52.12594 | 20.90687 | 2009 ft | 105 kts | 134° |
| 2026-05-05 21:07 | 52.12149 | 20.91639 | 2003 ft | 105 kts | 130° |
| 2026-05-05 21:07 | 52.11699 | 20.92549 | 1994 ft | 105 kts | 131° |
| 2026-05-05 21:08 | 52.11241 | 20.93495 | 1997 ft | 105 kts | 132° |
| 2026-05-05 21:08 | 52.10756 | 20.94324 | 1986 ft | 101 kts | 161° |
| 2026-05-05 21:08 | 52.10090 | 20.94259 | 2007 ft | 98 kts | 197° |
| 2026-05-05 21:08 | 52.09535 | 20.93628 | 2018 ft | 101 kts | 238° |
| 2026-05-05 21:09 | 52.09358 | 20.92531 | 2007 ft | 102 kts | 272° |
| 2026-05-05 21:09 | 52.09659 | 20.91508 | 2002 ft | 104 kts | 311° |
| 2026-05-05 21:09 | 52.10226 | 20.90766 | 2003 ft | 105 kts | 317° |
| 2026-05-05 21:09 | 52.10843 | 20.90100 | 2007 ft | 107 kts | 328° |
| 2026-05-05 21:10 | 52.11511 | 20.89533 | 2007 ft | 110 kts | 339° |
| 2026-05-05 21:10 | 52.12257 | 20.89238 | 2010 ft | 111 kts | 346° |
| 2026-05-05 21:10 | 52.13027 | 20.89066 | 2000 ft | 114 kts | 4° |
| 2026-05-05 21:10 | 52.13587 | 20.89855 | 2013 ft | 109 kts | 67° |
| 2026-05-05 21:11 | 52.13967 | 20.90927 | 2002 ft | 110 kts | 57° |
| 2026-05-05 21:11 | 52.14367 | 20.91962 | 2004 ft | 107 kts | 59° |
| 2026-05-05 21:11 | 52.14765 | 20.92983 | 1995 ft | 107 kts | 58° |
| 2026-05-05 21:11 | 52.15174 | 20.94033 | 2006 ft | 111 kts | 60° |
| 2026-05-05 21:12 | 52.15584 | 20.95108 | 2006 ft | 111 kts | 66° |
| 2026-05-05 21:12 | 52.15454 | 20.96211 | 2013 ft | 104 kts | 139° |
| 2026-05-05 21:12 | 52.14899 | 20.96952 | 2003 ft | 102 kts | 152° |
| 2026-05-05 21:12 | 52.14275 | 20.97464 | 1999 ft | 102 kts | 149° |
| 2026-05-05 21:13 | 52.13680 | 20.98076 | 2003 ft | 102 kts | 154° |
| 2026-05-05 21:13 | 52.13059 | 20.98642 | 2003 ft | 103 kts | 150° |
| 2026-05-05 21:13 | 52.12439 | 20.99249 | 2007 ft | 105 kts | 151° |
| 2026-05-05 21:13 | 52.11816 | 20.99864 | 2007 ft | 104 kts | 151° |
| 2026-05-05 21:14 | 52.11211 | 21.00469 | 2002 ft | 101 kts | 152° |
| 2026-05-05 21:14 | 52.10886 | 21.01398 | 1999 ft | 106 kts | 76° |
| 2026-05-05 21:14 | 52.11481 | 21.01919 | 2009 ft | 109 kts | 337° |
| 2026-05-05 21:14 | 52.11871 | 21.01063 | 1961 ft | 90 kts | 288° |
| 2026-05-05 21:15 | 52.12344 | 21.00418 | 1548 ft | 95 kts | 345° |
| 2026-05-05 21:15 | 52.12946 | 20.99923 | 1093 ft | 96 kts | 335° |
| 2026-05-05 21:15 | 52.13508 | 20.99406 | 748 ft | 87 kts | 335° |
| 2026-05-05 21:15 | 52.13987 | 20.99003 | 568 ft | 76 kts | 332° |
| 2026-05-05 21:16 | 52.14494 | 20.98513 | 560 ft | 92 kts | 336° |
| 2026-05-05 21:16 | 52.15061 | 20.98031 | 466 ft | 93 kts | 333° |
| 2026-05-05 21:16 | 52.15620 | 20.97547 | 347 ft | 87 kts | 333° |
| 2026-05-05 21:16 | 52.16058 | 20.97164 | 334 ft | 61 kts | 331° |
| 2026-05-05 21:17 | 52.16377 | 20.96877 | 332 ft | 46 kts | 330° |
| 2026-05-05 21:17 | 52.16643 | 20.96643 | 334 ft | 43 kts | 334° |
| 2026-05-05 21:17 | 52.16911 | 20.96513 | 330 ft | 38 kts | 360° |
| 2026-05-05 21:17 | 52.17146 | 20.96592 | 333 ft | 32 kts | 355° |
| 2026-05-05 21:18 | 52.17334 | 20.96465 | 333 ft | 27 kts | 332° |
| 2026-05-05 21:18 | 52.17493 | 20.96313 | 333 ft | 27 kts | 330° |
| 2026-05-05 21:18 | 52.17656 | 20.96168 | 329 ft | 26 kts | 330° |
| 2026-05-05 21:18 | 52.17799 | 20.96038 | 333 ft | 21 kts | 332° |
| 2026-05-05 21:19 | 52.17917 | 20.95933 | 333 ft | 17 kts | 331° |
| 2026-05-05 21:19 | 52.17992 | 20.96004 | 333 ft | 12 kts | 60° |
| 2026-05-05 21:19 | 52.18017 | 20.96110 | 331 ft | 8 kts | 43° |
| 2026-05-05 21:19 | 52.18038 | 20.96090 | 333 ft | 0 kts | 230° |